Time;durP1;ratioP1;P1;durP2;ratioP2;P2;SDS_P1;SDS_P2;PMS_P1;PMS_P2;Temp;Humidity;BMP_temperature;BMP_pressure;BME280_temperature;BME280_humidity;BME280_pressure;Samples;Min_cycle;Max_cycle;Signal;HPM_P1;HPM_P2
2022/10/03 00:02:00;;;;;;;;;;;12.70;99.20;;;;;;5082232;28;19928;-79
2022/10/03 00:04:36;;;;;;;;;;;12.70;99.20;;;;;;5084469;28;19932;-79
2022/10/03 00:07:09;;;;;;;;;;;12.70;99.20;;;;;;5080193;28;19932;-77
2022/10/03 00:09:46;;;;;;;;;;;12.70;99.20;;;;;;5084294;28;19928;-78
2022/10/03 00:12:16;;;;;;;;;;;12.70;99.20;;;;;;5080833;28;20403;-78
2022/10/03 00:14:46;;;;;;;;;;;12.60;99.20;;;;;;5084399;28;20415;-78
2022/10/03 00:17:16;;;;;;;;;;;12.60;99.20;;;;;;5080690;28;19928;-80
2022/10/03 00:19:47;;;;;;;;;;;12.60;99.20;;;;;;5083680;28;19928;-81
2022/10/03 00:22:21;;;;;;;;;;;12.60;99.20;;;;;;5082716;28;19928;-80
2022/10/03 00:24:53;;;;;;;;;;;12.60;99.20;;;;;;5083444;28;20634;-81
2022/10/03 00:27:27;;;;;;;;;;;12.60;99.20;;;;;;5083071;28;20388;-80
2022/10/03 00:30:02;;;;;;;;;;;12.60;99.20;;;;;;5081290;28;19928;-81
2022/10/03 00:32:44;;;;;;;;;;;12.50;99.20;;;;;;5083374;28;19928;-80
2022/10/03 00:35:19;;;;;;;;;;;12.50;99.20;;;;;;5083138;28;20400;-81
2022/10/03 00:37:56;;;;;;;;;;;12.50;99.20;;;;;;5082398;28;19928;-80
2022/10/03 00:40:37;;;;;;;;;;;12.50;99.40;;;;;;5077546;28;19928;-81
2022/10/03 00:43:28;;;;;;;;;;;12.50;99.20;;;;;;5065097;28;19935;-80
2022/10/03 00:46:04;;;;;;;;;;;12.50;99.20;;;;;;5014630;28;19937;-81
2022/10/03 00:48:53;;;;;;;;;;;12.50;99.20;;;;;;5087896;28;19928;-80
2022/10/03 00:51:25;;;;;;;;;;;12.50;99.20;;;;;;5083758;28;19939;-81
2022/10/03 00:54:04;;;;;;;;;;;12.40;99.20;;;;;;5086407;28;20045;-80
2022/10/03 00:56:39;;;;;;;;;;;12.40;99.20;;;;;;5078791;28;19929;-81
2022/10/03 00:59:17;;;;;;;;;;;12.40;99.20;;;;;;5085184;28;19928;-81
2022/10/03 01:01:44;;;;;;;;;;;12.40;99.20;;;;;;5086990;28;19928;-81
2022/10/03 01:04:20;;;;;;;;;;;12.40;99.30;;;;;;5087175;28;19928;-80
2022/10/03 01:06:49;;;;;;;;;;;12.40;99.30;;;;;;5084203;28;19928;-80
2022/10/03 01:09:32;;;;;;;;;;;12.40;99.30;;;;;;5086342;28;19935;-80
2022/10/03 01:12:16;;;;;;;;;;;12.40;99.30;;;;;;5081685;28;19928;-80
2022/10/03 01:14:59;;;;;;;;;;;12.30;99.20;;;;;;5087308;28;19935;-81
2022/10/03 01:17:31;;;;;;;;;;;12.40;99.30;;;;;;5086146;28;19943;-81
2022/10/03 01:20:02;;;;;;;;;;;12.40;99.30;;;;;;5085965;28;19935;-81
2022/10/03 01:22:37;;;;;;;;;;;12.30;99.30;;;;;;5086165;28;19935;-80
2022/10/03 01:25:11;;;;;;;;;;;12.30;99.30;;;;;;5087470;28;19972;-81
2022/10/03 01:30:21;;;;;;;;;;;12.30;99.30;;;;;;5081269;28;20408;-81
2022/10/03 01:30:33;;;;;;;;;;;12.30;99.30;;;;;;5083166;28;19932;-81
2022/10/03 01:33:02;;;;;;;;;;;12.30;99.30;;;;;;5085130;28;19983;-80
2022/10/03 01:35:32;;;;;;;;;;;12.30;99.30;;;;;;5082602;28;19932;-81
2022/10/03 01:38:05;;;;;;;;;;;12.30;99.30;;;;;;5086268;28;19959;-81
2022/10/03 01:40:34;;;;;;;;;;;12.30;99.30;;;;;;5086012;28;19928;-80
2022/10/03 01:43:05;;;;;;;;;;;12.30;99.30;;;;;;5081366;28;19928;-81
2022/10/03 01:45:40;;;;;;;;;;;12.30;99.30;;;;;;5084289;28;19928;-80
2022/10/03 01:48:11;;;;;;;;;;;12.30;99.30;;;;;;5086625;28;19935;-80
2022/10/03 01:50:45;;;;;;;;;;;12.20;99.20;;;;;;5081317;28;19932;-81
2022/10/03 01:53:14;;;;;;;;;;;12.20;99.20;;;;;;5086043;28;19935;-81
2022/10/03 01:55:47;;;;;;;;;;;12.20;99.20;;;;;;5084281;28;19955;-80
2022/10/03 01:58:21;;;;;;;;;;;12.30;99.30;;;;;;5075130;28;19959;-81
2022/10/03 02:00:52;;;;;;;;;;;12.20;99.30;;;;;;5083679;28;19931;-80
2022/10/03 02:03:21;;;;;;;;;;;12.20;99.20;;;;;;5085977;28;19934;-81
2022/10/03 02:05:53;;;;;;;;;;;12.20;99.20;;;;;;5084659;28;19932;-81
2022/10/03 02:08:23;;;;;;;;;;;12.20;99.20;;;;;;5085517;28;20027;-81
2022/10/03 02:10:52;;;;;;;;;;;12.20;99.20;;;;;;5084347;28;19943;-80
2022/10/03 02:13:22;;;;;;;;;;;12.20;99.50;;;;;;5084295;28;19924;-80
2022/10/03 02:15:55;;;;;;;;;;;12.20;99.20;;;;;;5083928;28;19935;-81
2022/10/03 02:18:27;;;;;;;;;;;12.10;99.20;;;;;;5085761;28;19944;-81
2022/10/03 02:20:58;;;;;;;;;;;12.10;99.20;;;;;;5081101;28;19925;-81
2022/10/03 02:23:37;;;;;;;;;;;12.10;99.20;;;;;;5085780;28;19928;-82
2022/10/03 02:26:09;;;;;;;;;;;12.10;99.20;;;;;;5085104;28;19928;-81
2022/10/03 02:28:46;;;;;;;;;;;12.10;99.20;;;;;;5085451;28;20383;-80
2022/10/03 02:31:28;;;;;;;;;;;12.10;99.20;;;;;;5084073;28;19932;-80
2022/10/03 02:34:23;;;;;;;;;;;12.10;99.20;;;;;;5077363;28;19936;-81
2022/10/03 02:37:07;;;;;;;;;;;12.10;99.20;;;;;;5082219;28;20017;-80
2022/10/03 02:39:52;;;;;;;;;;;12.00;99.20;;;;;;5086082;28;20503;-80
2022/10/03 02:42:42;;;;;;;;;;;12.10;99.20;;;;;;5078690;28;20039;-80
2022/10/03 02:45:27;;;;;;;;;;;12.00;99.20;;;;;;5023834;28;19940;-80
2022/10/03 02:48:09;;;;;;;;;;;12.00;99.20;;;;;;5084035;28;19928;-80
2022/10/03 02:50:49;;;;;;;;;;;12.00;99.20;;;;;;5078270;28;20026;-81
2022/10/03 02:53:34;;;;;;;;;;;12.00;99.10;;;;;;5083595;28;19951;-81
2022/10/03 02:56:15;;;;;;;;;;;12.00;99.20;;;;;;5084525;28;19935;-79
2022/10/03 02:59:09;;;;;;;;;;;11.90;99.10;;;;;;5080756;28;20289;-81
2022/10/03 03:01:51;;;;;;;;;;;11.90;99.10;;;;;;5065922;28;19935;-80
2022/10/03 03:04:38;;;;;;;;;;;12.00;99.20;;;;;;5082420;28;19935;-79
2022/10/03 03:07:18;;;;;;;;;;;11.90;99.10;;;;;;5082835;28;19935;-80
2022/10/03 03:10:12;;;;;;;;;;;11.90;99.10;;;;;;5080419;28;19928;-80
2022/10/03 03:12:53;;;;;;;;;;;11.90;99.10;;;;;;5081826;28;19939;-79
2022/10/03 03:15:36;;;;;;;;;;;11.90;99.10;;;;;;5084714;28;19928;-80
2022/10/03 03:18:06;;;;;;;;;;;11.90;99.10;;;;;;5084349;28;19963;-82
2022/10/03 03:20:53;;;;;;;;;;;11.80;99.10;;;;;;5082207;28;20489;-82
2022/10/03 03:23:37;;;;;;;;;;;11.90;99.10;;;;;;5083650;28;19939;-81
2022/10/03 03:26:21;;;;;;;;;;;11.80;99.10;;;;;;5086282;28;19927;-80
2022/10/03 03:28:52;;;;;;;;;;;11.80;99.10;;;;;;5082364;28;19928;-81
2022/10/03 03:31:23;;;;;;;;;;;11.80;99.10;;;;;;5081472;28;19932;-81
2022/10/03 03:33:55;;;;;;;;;;;11.80;99.10;;;;;;5080474;28;19939;-80
2022/10/03 03:36:25;;;;;;;;;;;11.80;99.10;;;;;;5079277;28;19928;-80
2022/10/03 03:38:57;;;;;;;;;;;11.80;99.10;;;;;;5083049;28;20336;-81
2022/10/03 03:41:31;;;;;;;;;;;11.70;99.10;;;;;;5080212;28;20627;-81
2022/10/03 03:44:09;;;;;;;;;;;11.70;99.10;;;;;;5080186;28;19928;-81
2022/10/03 03:46:40;;;;;;;;;;;11.70;99.10;;;;;;5081675;28;19939;-80
2022/10/03 03:49:15;;;;;;;;;;;11.70;99.10;;;;;;5080391;28;20562;-81
2022/10/03 03:51:45;;;;;;;;;;;11.70;99.10;;;;;;5078001;28;19935;-80
2022/10/03 03:54:33;;;;;;;;;;;11.60;99.10;;;;;;5082257;28;19935;-80
2022/10/03 03:57:13;;;;;;;;;;;11.60;99.10;;;;;;5071080;28;19924;-80
2022/10/03 03:59:47;;;;;;;;;;;11.60;99.10;;;;;;5082878;28;20531;-80
2022/10/03 04:02:25;;;;;;;;;;;11.60;99.10;;;;;;5082340;28;19928;-81
2022/10/03 04:04:59;;;;;;;;;;;11.60;99.10;;;;;;5083707;28;19935;-81
2022/10/03 04:07:35;;;;;;;;;;;11.60;99.10;;;;;;5082457;28;19938;-80
2022/10/03 04:10:11;;;;;;;;;;;11.60;99.10;;;;;;5081890;28;19932;-77
2022/10/03 04:12:48;;;;;;;;;;;11.60;99.10;;;;;;5081374;28;19924;-78
2022/10/03 04:15:27;;;;;;;;;;;11.60;99.10;;;;;;5081055;28;19928;-77
2022/10/03 04:20:55;;;;;;;;;;;11.50;99.10;;;;;;5083358;28;20782;-78
2022/10/03 04:23:27;;;;;;;;;;;11.50;99.10;;;;;;5087110;28;19955;-77
2022/10/03 04:26:03;;;;;;;;;;;11.50;99.10;;;;;;5086029;28;19928;-79
2022/10/03 04:28:38;;;;;;;;;;;11.50;99.10;;;;;;5081785;28;19940;-79
2022/10/03 04:31:15;;;;;;;;;;;11.50;99.10;;;;;;5084292;28;19924;-78
2022/10/03 04:33:55;;;;;;;;;;;11.50;99.10;;;;;;5087724;28;19939;-77
2022/10/03 04:36:35;;;;;;;;;;;11.40;99.10;;;;;;5086435;28;19928;-78
2022/10/03 04:39:06;;;;;;;;;;;11.40;99.10;;;;;;5086303;28;19931;-77
2022/10/03 04:41:39;;;;;;;;;;;11.40;99.10;;;;;;5083433;28;19935;-76
2022/10/03 04:44:11;;;;;;;;;;;11.40;99.10;;;;;;5084952;28;20689;-79
2022/10/03 04:46:43;;;;;;;;;;;11.40;99.10;;;;;;5084852;28;19928;-77
2022/10/03 04:49:11;;;;;;;;;;;11.40;99.10;;;;;;5085206;28;19936;-78
2022/10/03 04:51:44;;;;;;;;;;;11.40;99.10;;;;;;5085605;28;20001;-78
2022/10/03 04:54:15;;;;;;;;;;;11.40;99.10;;;;;;5086008;28;19939;-79
2022/10/03 04:56:48;;;;;;;;;;;11.40;99.10;;;;;;5087005;28;19928;-79
2022/10/03 04:59:38;;;;;;;;;;;11.40;99.10;;;;;;5086111;28;19932;-78
2022/10/03 05:02:11;;;;;;;;;;;11.30;99.10;;;;;;5085491;28;19928;-77
2022/10/03 05:04:43;;;;;;;;;;;11.30;99.40;;;;;;5082009;28;20006;-79
2022/10/03 05:07:14;;;;;;;;;;;11.30;99.10;;;;;;5083688;28;19932;-79
2022/10/03 05:09:46;;;;;;;;;;;11.30;99.10;;;;;;5086187;28;19932;-78
2022/10/03 05:12:15;;;;;;;;;;;11.30;99.10;;;;;;5082629;28;20463;-79
2022/10/03 05:14:51;;;;;;;;;;;11.30;99.10;;;;;;5086534;28;19963;-77
2022/10/03 05:17:20;;;;;;;;;;;11.30;99.10;;;;;;5086358;28;19928;-77
2022/10/03 05:19:54;;;;;;;;;;;11.20;99.10;;;;;;5084625;28;19932;-77
2022/10/03 05:22:26;;;;;;;;;;;11.20;99.10;;;;;;5084898;28;19979;-77
2022/10/03 05:24:56;;;;;;;;;;;11.20;99.00;;;;;;5085607;28;20746;-76
2022/10/03 05:27:25;;;;;;;;;;;11.20;99.00;;;;;;5083908;28;20510;-77
2022/10/03 05:29:59;;;;;;;;;;;11.20;99.00;;;;;;5085323;28;20387;-78
2022/10/03 05:32:30;;;;;;;;;;;11.20;99.00;;;;;;5083123;28;19986;-78
2022/10/03 05:35:20;;;;;;;;;;;11.20;99.10;;;;;;5086338;28;19935;-77
2022/10/03 05:38:01;;;;;;;;;;;11.20;99.00;;;;;;5061246;28;19939;-77
2022/10/03 05:40:29;;;;;;;;;;;11.10;99.00;;;;;;5079635;28;19928;-77
2022/10/03 05:43:01;;;;;;;;;;;11.10;99.00;;;;;;5078076;28;19928;-76
2022/10/03 05:45:32;;;;;;;;;;;11.10;99.00;;;;;;5083649;28;19928;-76
2022/10/03 05:48:11;;;;;;;;;;;11.10;99.00;;;;;;5085287;28;19928;-77
2022/10/03 05:50:42;;;;;;;;;;;11.10;99.00;;;;;;5083437;28;20498;-77
2022/10/03 05:53:18;;;;;;;;;;;11.10;99.00;;;;;;5084635;28;20558;-76
2022/10/03 05:55:59;;;;;;;;;;;11.10;99.00;;;;;;5082798;28;19987;-77
2022/10/03 05:58:34;;;;;;;;;;;11.00;99.00;;;;;;5080170;28;20725;-76
2022/10/03 06:01:18;;;;;;;;;;;11.00;99.00;;;;;;5081157;28;19932;-78
2022/10/03 06:04:04;;;;;;;;;;;11.00;99.00;;;;;;5084111;28;19939;-76
2022/10/03 06:06:34;;;;;;;;;;;11.00;99.00;;;;;;5070437;28;19928;-78
2022/10/03 06:09:22;;;;;;;;;;;11.00;99.00;;;;;;5083677;28;19932;-77
2022/10/03 06:11:57;;;;;;;;;;;10.90;99.00;;;;;;5080326;28;19943;-77
2022/10/03 06:14:42;;;;;;;;;;;11.00;99.00;;;;;;5085743;28;19965;-76
2022/10/03 06:17:17;;;;;;;;;;;10.90;99.00;;;;;;5083182;28;20392;-78
2022/10/03 06:19:49;;;;;;;;;;;10.90;99.00;;;;;;5080991;28;20517;-78
2022/10/03 06:22:38;;;;;;;;;;;10.90;99.00;;;;;;5082115;28;19932;-78
2022/10/03 06:25:20;;;;;;;;;;;10.90;99.00;;;;;;5084105;28;20707;-78
2022/10/03 06:28:05;;;;;;;;;;;10.90;99.00;;;;;;5083610;28;20346;-77
2022/10/03 06:30:39;;;;;;;;;;;10.90;99.00;;;;;;5080226;28;19928;-78
2022/10/03 06:33:26;;;;;;;;;;;10.90;99.10;;;;;;5083570;28;19928;-78
2022/10/03 06:36:08;;;;;;;;;;;10.80;99.00;;;;;;5083969;28;19985;-77
2022/10/03 06:38:50;;;;;;;;;;;10.80;99.10;;;;;;5080123;28;20435;-77
2022/10/03 06:41:35;;;;;;;;;;;10.80;99.00;;;;;;5082875;28;19939;-77
2022/10/03 06:44:08;;;;;;;;;;;10.80;99.00;;;;;;5083420;28;19927;-75
2022/10/03 06:47:01;;;;;;;;;;;10.80;99.00;;;;;;5084792;28;20304;-79
2022/10/03 06:49:54;;;;;;;;;;;10.80;99.00;;;;;;5079783;28;19932;-78
2022/10/03 06:52:29;;;;;;;;;;;10.80;99.10;;;;;;5045198;28;19943;-80
2022/10/03 06:55:13;;;;;;;;;;;10.70;99.00;;;;;;5083924;28;19935;-80
2022/10/03 06:58:01;;;;;;;;;;;10.70;99.00;;;;;;5079789;28;20315;-80
2022/10/03 07:00:36;;;;;;;;;;;10.70;99.00;;;;;;5064706;28;19939;-79
2022/10/03 07:03:20;;;;;;;;;;;10.80;99.10;;;;;;5085062;28;19931;-80
2022/10/03 07:06:00;;;;;;;;;;;10.70;99.10;;;;;;5078557;28;19968;-80
2022/10/03 07:08:42;;;;;;;;;;;10.70;99.10;;;;;;5081491;28;20005;-81
2022/10/03 07:11:25;;;;;;;;;;;10.70;99.10;;;;;;5070942;28;20602;-81
2022/10/03 07:14:13;;;;;;;;;;;10.70;99.10;;;;;;5084214;28;19932;-81
2022/10/03 07:17:00;;;;;;;;;;;10.70;99.10;;;;;;5080318;28;20681;-81
2022/10/03 07:19:44;;;;;;;;;;;10.70;99.10;;;;;;5082296;28;19939;-81
2022/10/03 07:22:32;;;;;;;;;;;10.70;99.40;;;;;;5083496;28;19935;-80
2022/10/03 07:25:21;;;;;;;;;;;10.70;99.10;;;;;;5083517;28;19931;-80
2022/10/03 07:28:03;;;;;;;;;;;10.70;99.20;;;;;;5082265;28;19935;-81
2022/10/03 07:30:34;;;;;;;;;;;10.70;99.20;;;;;;5082553;28;19928;-80
2022/10/03 07:33:19;;;;;;;;;;;10.70;99.20;;;;;;5083836;28;20686;-80
2022/10/03 07:39:01;;;;;;;;;;;10.80;99.20;;;;;;5083446;28;19935;-81
2022/10/03 07:41:43;;;;;;;;;;;10.70;99.20;;;;;;5073092;28;19932;-80
2022/10/03 07:44:28;;;;;;;;;;;10.80;99.20;;;;;;5076714;28;20028;-80
2022/10/03 07:47:11;;;;;;;;;;;10.80;99.20;;;;;;5079363;28;19928;-81
2022/10/03 07:49:47;;;;;;;;;;;10.80;99.20;;;;;;5077249;28;20847;-82
2022/10/03 07:52:34;;;;;;;;;;;10.80;99.20;;;;;;5078490;28;19939;-80
2022/10/03 07:55:28;;;;;;;;;;;10.80;99.20;;;;;;5079000;28;19928;-80
2022/10/03 07:58:25;;;;;;;;;;;10.80;99.20;;;;;;5032907;28;19928;-81
2022/10/03 08:01:02;;;;;;;;;;;10.90;99.20;;;;;;5082272;28;20003;-80
2022/10/03 08:03:43;;;;;;;;;;;10.90;99.20;;;;;;5075495;28;19939;-81
2022/10/03 08:06:15;;;;;;;;;;;10.90;99.10;;;;;;5070654;28;20219;-80
2022/10/03 08:08:56;;;;;;;;;;;10.90;99.10;;;;;;5082486;28;19932;-80
2022/10/03 08:11:34;;;;;;;;;;;10.90;99.10;;;;;;5045046;28;19932;-80
2022/10/03 08:14:08;;;;;;;;;;;10.90;99.00;;;;;;5082973;28;19932;-81
2022/10/03 08:16:48;;;;;;;;;;;10.90;99.10;;;;;;5082281;28;19927;-81
2022/10/03 08:19:20;;;;;;;;;;;10.90;99.10;;;;;;5080157;28;19928;-80
2022/10/03 08:21:53;;;;;;;;;;;10.90;99.10;;;;;;5082320;28;19935;-81
2022/10/03 08:24:28;;;;;;;;;;;11.00;99.10;;;;;;5084006;28;19935;-79
2022/10/03 08:27:02;;;;;;;;;;;11.00;99.10;;;;;;5082151;28;20300;-81
2022/10/03 08:29:42;;;;;;;;;;;11.00;99.10;;;;;;5082225;28;19928;-79
2022/10/03 08:32:29;;;;;;;;;;;11.00;99.10;;;;;;5081749;28;19935;-80
2022/10/03 08:35:18;;;;;;;;;;;11.00;99.10;;;;;;5083200;28;19928;-79
2022/10/03 08:38:04;;;;;;;;;;;11.00;99.00;;;;;;5084503;28;20653;-81
2022/10/03 08:40:52;;;;;;;;;;;11.10;99.10;;;;;;5077699;28;19935;-81
2022/10/03 08:43:32;;;;;;;;;;;11.10;99.00;;;;;;5079316;28;19983;-81
2022/10/03 08:46:05;;;;;;;;;;;11.10;99.00;;;;;;5081152;28;20023;-81
2022/10/03 08:48:40;;;;;;;;;;;11.10;99.00;;;;;;5083249;28;20460;-80
2022/10/03 08:51:25;;;;;;;;;;;11.10;99.00;;;;;;5080588;28;20480;-82
2022/10/03 08:54:12;;;;;;;;;;;11.20;99.00;;;;;;5045400;28;20024;-80
2022/10/03 08:56:48;;;;;;;;;;;11.20;99.00;;;;;;5073831;28;19929;-81
2022/10/03 08:59:21;;;;;;;;;;;11.20;99.00;;;;;;5081563;28;20215;-81
2022/10/03 09:02:03;;;;;;;;;;;11.20;99.00;;;;;;5082649;28;19935;-80
2022/10/03 09:04:48;;;;;;;;;;;11.20;99.00;;;;;;5060914;28;19928;-80
2022/10/03 09:07:48;;;;;;;;;;;11.30;98.90;;;;;;5085850;28;19967;-79
2022/10/03 09:10:35;;;;;;;;;;;11.30;98.90;;;;;;5084495;28;19928;-82
2022/10/03 09:13:18;;;;;;;;;;;11.30;98.90;;;;;;5085629;28;19928;-81
2022/10/03 09:16:03;;;;;;;;;;;11.40;98.90;;;;;;5083846;28;19931;-80
2022/10/03 09:18:42;;;;;;;;;;;11.40;98.80;;;;;;5084980;28;19928;-80
2022/10/03 09:21:25;;;;;;;;;;;11.50;98.70;;;;;;5086241;28;19928;-80
2022/10/03 09:24:07;;;;;;;;;;;11.50;98.60;;;;;;5083430;28;20020;-81
2022/10/03 09:26:42;;;;;;;;;;;11.60;98.70;;;;;;5083048;28;19928;-82
2022/10/03 09:29:23;;;;;;;;;;;11.60;98.60;;;;;;5085012;28;20391;-81
2022/10/03 09:32:04;;;;;;;;;;;11.60;98.40;;;;;;5085444;28;20653;-81
2022/10/03 09:34:46;;;;;;;;;;;11.70;98.30;;;;;;5068417;28;19943;-80
2022/10/03 09:37:33;;;;;;;;;;;11.70;98.30;;;;;;5085568;28;20111;-80
2022/10/03 09:40:33;;;;;;;;;;;11.70;98.20;;;;;;5083033;28;20514;-81
2022/10/03 09:43:06;;;;;;;;;;;11.80;98.10;;;;;;5080016;28;19935;-79
2022/10/03 09:45:56;;;;;;;;;;;11.80;98.10;;;;;;5084868;28;19939;-79
2022/10/03 09:48:35;;;;;;;;;;;11.80;98.00;;;;;;5079964;28;19935;-80
2022/10/03 09:51:15;;;;;;;;;;;11.80;98.00;;;;;;5083180;28;19946;-81
2022/10/03 09:53:53;;;;;;;;;;;11.90;97.90;;;;;;5086407;28;19927;-79
2022/10/03 09:56:34;;;;;;;;;;;12.00;97.90;;;;;;5084674;28;19928;-80
2022/10/03 09:59:12;;;;;;;;;;;12.00;97.80;;;;;;5082317;28;19928;-79
2022/10/03 10:01:41;;;;;;;;;;;12.10;97.70;;;;;;5085199;28;19928;-80
2022/10/03 10:04:35;;;;;;;;;;;12.10;97.70;;;;;;5084910;28;19939;-79
2022/10/03 10:07:18;;;;;;;;;;;12.10;97.60;;;;;;5082373;28;20289;-80
2022/10/03 10:09:54;;;;;;;;;;;12.20;97.60;;;;;;5085161;28;19928;-79
2022/10/03 10:12:41;;;;;;;;;;;12.20;97.50;;;;;;5081325;28;19935;-79
2022/10/03 10:15:24;;;;;;;;;;;12.30;97.40;;;;;;5083563;28;20681;-81
2022/10/03 10:18:09;;;;;;;;;;;12.40;97.60;;;;;;5083173;28;20300;-80
2022/10/03 10:20:46;;;;;;;;;;;12.50;97.20;;;;;;5041085;28;19935;-81
2022/10/03 10:23:26;;;;;;;;;;;12.60;97.20;;;;;;5084528;28;19939;-79
2022/10/03 10:26:03;;;;;;;;;;;12.60;97.00;;;;;;5082048;28;19971;-80
2022/10/03 10:28:42;;;;;;;;;;;12.70;96.80;;;;;;5077187;28;19928;-79
2022/10/03 10:31:38;;;;;;;;;;;12.80;96.70;;;;;;5080591;28;19928;-80
2022/10/03 10:34:19;;;;;;;;;;;12.80;96.80;;;;;;5082748;28;20423;-79
2022/10/03 10:37:06;;;;;;;;;;;12.90;96.80;;;;;;5064409;28;19935;-80
2022/10/03 10:39:58;;;;;;;;;;;12.90;96.60;;;;;;5082964;28;19935;-79
2022/10/03 10:42:43;;;;;;;;;;;13.00;96.50;;;;;;5073415;28;21166;-81
2022/10/03 10:45:24;;;;;;;;;;;13.10;96.30;;;;;;5080804;28;19932;-79
2022/10/03 10:48:09;;;;;;;;;;;13.20;95.90;;;;;;5083921;28;19935;-80
2022/10/03 10:51:04;;;;;;;;;;;13.20;95.70;;;;;;5074607;28;19939;-80
2022/10/03 10:53:49;;;;;;;;;;;13.30;95.60;;;;;;5047570;28;19932;-80
2022/10/03 10:56:34;;;;;;;;;;;13.40;95.50;;;;;;5082975;28;19928;-80
2022/10/03 10:59:34;;;;;;;;;;;13.50;95.50;;;;;;5080154;28;19928;-81
2022/10/03 11:02:19;;;;;;;;;;;13.50;95.30;;;;;;5081848;28;19927;-80
2022/10/03 11:05:05;;;;;;;;;;;13.60;95.20;;;;;;5082554;28;19963;-82
2022/10/03 11:08:03;;;;;;;;;;;13.70;94.40;;;;;;5083455;28;19935;-80
2022/10/03 11:10:34;;;;;;;;;;;13.80;94.60;;;;;;5082628;28;20746;-79
2022/10/03 11:13:29;;;;;;;;;;;13.90;94.80;;;;;;5081618;28;19935;-80
2022/10/03 11:16:25;;;;;;;;;;;13.90;94.60;;;;;;5081197;28;20450;-83
2022/10/03 11:19:09;;;;;;;;;;;14.00;94.60;;;;;;5039884;28;19928;-81
2022/10/03 11:21:54;;;;;;;;;;;14.10;94.40;;;;;;5082304;28;19928;-81
2022/10/03 11:24:47;;;;;;;;;;;14.20;94.10;;;;;;5081788;28;19928;-80
2022/10/03 11:27:35;;;;;;;;;;;14.20;94.10;;;;;;5083823;28;19932;-81
2022/10/03 11:30:18;;;;;;;;;;;14.30;94.10;;;;;;5084271;28;19935;-80
2022/10/03 11:33:05;;;;;;;;;;;14.40;94.20;;;;;;5084198;28;20366;-82
2022/10/03 11:35:40;;;;;;;;;;;14.40;94.00;;;;;;5068747;28;19928;-81
2022/10/03 11:38:10;;;;;;;;;;;14.50;94.00;;;;;;5084096;28;19939;-80
2022/10/03 11:40:39;;;;;;;;;;;14.50;93.40;;;;;;5082069;28;20570;-81
2022/10/03 11:43:20;;;;;;;;;;;14.60;93.60;;;;;;5078016;28;19928;-82
2022/10/03 11:45:51;;;;;;;;;;;14.60;93.70;;;;;;5083116;28;19935;-81
2022/10/03 11:48:29;;;;;;;;;;;14.60;93.70;;;;;;5085240;28;20408;-80
2022/10/03 11:50:56;;;;;;;;;;;14.70;93.70;;;;;;5081079;28;19936;-81
2022/10/03 11:53:33;;;;;;;;;;;14.70;93.70;;;;;;5084741;28;19971;-81
2022/10/03 11:56:08;;;;;;;;;;;14.70;93.70;;;;;;5082936;28;19928;-83
2022/10/03 11:58:51;;;;;;;;;;;14.70;93.40;;;;;;5078925;28;19928;-81
2022/10/03 12:01:23;;;;;;;;;;;14.70;93.10;;;;;;5075431;28;19935;-81
2022/10/03 12:03:53;;;;;;;;;;;14.80;93.20;;;;;;5084466;28;20001;-81
2022/10/03 12:09:23;;;;;;;;;;;15.00;93.20;;;;;;5083890;28;19981;-82
2022/10/03 12:11:54;;;;;;;;;;;15.00;93.10;;;;;;5079867;28;19932;-81
2022/10/03 12:14:27;;;;;;;;;;;15.10;93.00;;;;;;5085337;28;20905;-83
2022/10/03 12:17:04;;;;;;;;;;;15.10;92.90;;;;;;5083928;28;20396;-81
2022/10/03 12:19:33;;;;;;;;;;;15.20;92.90;;;;;;5080585;28;20292;-83
2022/10/03 12:22:05;;;;;;;;;;;15.20;92.80;;;;;;5084439;28;19927;-81
2022/10/03 12:24:33;;;;;;;;;;;15.20;92.70;;;;;;5083189;28;19928;-82
2022/10/03 12:27:03;;;;;;;;;;;15.20;92.60;;;;;;5083862;28;19935;-83
2022/10/03 12:29:32;;;;;;;;;;;15.20;92.60;;;;;;5080767;28;19939;-82
2022/10/03 12:32:18;;;;;;;;;;;15.20;92.80;;;;;;5083613;28;19967;-81
2022/10/03 12:34:49;;;;;;;;;;;15.20;92.70;;;;;;5083099;28;20382;-81
2022/10/03 12:37:25;;;;;;;;;;;15.20;92.70;;;;;;5084550;28;19936;-81
2022/10/03 12:40:03;;;;;;;;;;;15.20;92.90;;;;;;5084782;28;19924;-82
2022/10/03 12:42:31;;;;;;;;;;;15.10;92.90;;;;;;5081164;28;20016;-82
2022/10/03 12:45:00;;;;;;;;;;;15.10;92.80;;;;;;5086743;28;19936;-82
2022/10/03 12:47:32;;;;;;;;;;;15.10;92.90;;;;;;5088057;28;20672;-82
2022/10/03 12:50:04;;;;;;;;;;;15.10;93.00;;;;;;5087661;28;19935;-82
2022/10/03 12:52:33;;;;;;;;;;;15.10;93.10;;;;;;5086838;28;19927;-82
2022/10/03 12:55:04;;;;;;;;;;;15.10;93.10;;;;;;5087521;28;20674;-83
2022/10/03 12:57:46;;;;;;;;;;;15.10;93.10;;;;;;5082673;28;20320;-82
2022/10/03 13:00:19;;;;;;;;;;;15.10;93.20;;;;;;5070968;28;19935;-82
2022/10/03 13:02:54;;;;;;;;;;;15.10;93.00;;;;;;5089028;28;19932;-82
2022/10/03 13:05:32;;;;;;;;;;;15.20;93.00;;;;;;5084219;28;20546;-82
2022/10/03 13:08:01;;;;;;;;;;;15.10;92.60;;;;;;5088705;28;19984;-83
2022/10/03 13:10:32;;;;;;;;;;;15.10;92.70;;;;;;5088271;28;19928;-83
2022/10/03 13:13:04;;;;;;;;;;;15.20;92.50;;;;;;5087066;28;19934;-81
2022/10/03 13:15:40;;;;;;;;;;;15.20;92.60;;;;;;5087619;28;19947;-81
2022/10/03 13:18:12;;;;;;;;;;;15.30;92.70;;;;;;5086095;28;19932;-82
2022/10/03 13:20:41;;;;;;;;;;;15.40;92.80;;;;;;5087278;28;19947;-83
2022/10/03 13:23:12;;;;;;;;;;;15.40;92.50;;;;;;5084902;28;19932;-82
2022/10/03 13:25:44;;;;;;;;;;;15.50;92.50;;;;;;5087266;28;19935;-82
2022/10/03 13:28:14;;;;;;;;;;;15.70;90.60;;;;;;5080605;28;19938;-81
2022/10/03 13:30:45;;;;;;;;;;;15.70;90.40;;;;;;5086918;28;19935;-82
2022/10/03 13:33:16;;;;;;;;;;;15.80;90.70;;;;;;5088207;28;19928;-83
2022/10/03 13:36:01;;;;;;;;;;;15.90;90.40;;;;;;5088002;28;19963;-82
2022/10/03 13:38:58;;;;;;;;;;;15.90;90.50;;;;;;5081385;28;19928;-82
2022/10/03 13:41:30;;;;;;;;;;;16.10;90.90;;;;;;5022544;28;19968;-81
2022/10/03 13:43:59;;;;;;;;;;;16.10;91.00;;;;;;5072047;28;19939;-81
2022/10/03 13:46:29;;;;;;;;;;;16.20;90.90;;;;;;5087112;28;19928;-82
2022/10/03 13:49:00;;;;;;;;;;;16.30;90.70;;;;;;5086103;28;19938;-81
2022/10/03 13:51:33;;;;;;;;;;;16.30;90.60;;;;;;5080889;28;19932;-82
2022/10/03 13:54:01;;;;;;;;;;;16.30;90.50;;;;;;5085557;28;19945;-81
2022/10/03 13:56:41;;;;;;;;;;;16.30;90.60;;;;;;5084132;28;19951;-82
2022/10/03 13:59:13;;;;;;;;;;;16.30;90.70;;;;;;5084465;28;19950;-81
2022/10/03 14:01:43;;;;;;;;;;;16.30;90.70;;;;;;5085993;28;20165;-81
2022/10/03 14:04:24;;;;;;;;;;;16.30;90.70;;;;;;5086740;28;19935;-82
2022/10/03 14:06:55;;;;;;;;;;;16.30;90.80;;;;;;5083946;28;20432;-79
2022/10/03 14:09:31;;;;;;;;;;;16.30;90.90;;;;;;5087418;28;19935;-80
2022/10/03 14:12:04;;;;;;;;;;;16.20;90.90;;;;;;5082790;28;20413;-78
2022/10/03 14:14:39;;;;;;;;;;;16.20;90.90;;;;;;5085708;28;19935;-78
2022/10/03 14:17:09;;;;;;;;;;;16.20;91.00;;;;;;5085338;28;20269;-78
2022/10/03 14:19:40;;;;;;;;;;;16.20;91.20;;;;;;5085154;28;19928;-79
2022/10/03 14:22:11;;;;;;;;;;;16.20;91.30;;;;;;5084533;28;19935;-80
2022/10/03 14:24:43;;;;;;;;;;;16.20;91.20;;;;;;5086142;28;19943;-79
2022/10/03 14:27:14;;;;;;;;;;;16.10;90.90;;;;;;5085369;28;19928;-79
2022/10/03 14:29:48;;;;;;;;;;;16.10;90.90;;;;;;5085312;28;20019;-78
2022/10/03 14:32:18;;;;;;;;;;;16.10;90.70;;;;;;5086176;28;19935;-79
2022/10/03 14:34:52;;;;;;;;;;;16.10;90.50;;;;;;5082810;28;20095;-77
2022/10/03 14:37:24;;;;;;;;;;;16.20;90.20;;;;;;5082677;28;19928;-80
2022/10/03 14:39:55;;;;;;;;;;;16.20;90.60;;;;;;5086637;28;19963;-78
2022/10/03 14:42:33;;;;;;;;;;;16.20;90.50;;;;;;5081352;28;19933;-78
2022/10/03 14:45:01;;;;;;;;;;;16.30;88.20;;;;;;5084660;28;19977;-79
2022/10/03 14:47:34;;;;;;;;;;;16.30;88.90;;;;;;5084207;28;20460;-80
2022/10/03 14:50:03;;;;;;;;;;;16.40;89.90;;;;;;5076108;28;19936;-78
2022/10/03 14:52:33;;;;;;;;;;;16.50;90.00;;;;;;5083558;28;20483;-76
2022/10/03 14:55:08;;;;;;;;;;;16.50;89.50;;;;;;5085036;28;19923;-80
2022/10/03 14:57:35;;;;;;;;;;;16.50;89.30;;;;;;5077582;28;19975;-79
2022/10/03 15:00:02;;;;;;;;;;;16.50;88.80;;;;;;5084893;28;19939;-80
2022/10/03 15:02:30;;;;;;;;;;;16.60;88.50;;;;;;5084109;28;19935;-80
2022/10/03 15:05:01;;;;;;;;;;;16.60;88.40;;;;;;5085530;28;19967;-77
2022/10/03 15:07:38;;;;;;;;;;;16.60;88.00;;;;;;5080092;28;20546;-79
2022/10/03 15:10:07;;;;;;;;;;;16.60;88.10;;;;;;5084960;28;20487;-77
2022/10/03 15:12:36;;;;;;;;;;;16.60;88.40;;;;;;5082386;28;19928;-80
2022/10/03 15:15:05;;;;;;;;;;;16.60;87.90;;;;;;5084701;28;20517;-79
2022/10/03 15:17:33;;;;;;;;;;;16.60;88.10;;;;;;5084373;28;19975;-78
2022/10/03 15:20:02;;;;;;;;;;;16.60;88.20;;;;;;5083161;28;19928;-78
2022/10/03 15:22:31;;;;;;;;;;;16.60;88.70;;;;;;5084596;28;20014;-77
2022/10/03 15:25:02;;;;;;;;;;;16.60;89.20;;;;;;5083790;28;19949;-77